sensor_id;sensor_type;location;lat;lon;timestamp;P1;durP1;ratioP1;P2;durP2;ratioP2
12603;SDS011;6367;52.508;13.284;2023-02-02T00:01:35;12.07;;;2.80;;
12603;SDS011;6367;52.508;13.284;2023-02-02T00:04:01;8.10;;;2.20;;
12603;SDS011;6367;52.508;13.284;2023-02-02T00:06:27;14.27;;;3.50;;
12603;SDS011;6367;52.508;13.284;2023-02-02T00:08:55;13.00;;;3.37;;
12603;SDS011;6367;52.508;13.284;2023-02-02T00:11:22;14.07;;;2.90;;
12603;SDS011;6367;52.508;13.284;2023-02-02T00:13:48;14.47;;;2.57;;
12603;SDS011;6367;52.508;13.284;2023-02-02T00:18:55;13.60;;;2.73;;
12603;SDS011;6367;52.508;13.284;2023-02-02T00:21:22;9.90;;;2.80;;
12603;SDS011;6367;52.508;13.284;2023-02-02T00:23:48;12.20;;;2.43;;
12603;SDS011;6367;52.508;13.284;2023-02-02T00:26:14;10.20;;;2.80;;
12603;SDS011;6367;52.508;13.284;2023-02-02T00:28:40;12.27;;;3.20;;
12603;SDS011;6367;52.508;13.284;2023-02-02T00:31:06;11.70;;;2.50;;
12603;SDS011;6367;52.508;13.284;2023-02-02T00:33:32;17.33;;;3.77;;
12603;SDS011;6367;52.508;13.284;2023-02-02T00:35:57;12.67;;;3.57;;
12603;SDS011;6367;52.508;13.284;2023-02-02T00:38:23;15.10;;;2.70;;
12603;SDS011;6367;52.508;13.284;2023-02-02T00:40:49;17.60;;;3.23;;
12603;SDS011;6367;52.508;13.284;2023-02-02T00:43:14;12.33;;;3.00;;
12603;SDS011;6367;52.508;13.284;2023-02-02T00:45:40;14.50;;;3.70;;
12603;SDS011;6367;52.508;13.284;2023-02-02T00:48:06;16.23;;;3.00;;
12603;SDS011;6367;52.508;13.284;2023-02-02T00:50:31;12.57;;;2.30;;
12603;SDS011;6367;52.508;13.284;2023-02-02T00:52:57;14.40;;;3.00;;
12603;SDS011;6367;52.508;13.284;2023-02-02T00:55:23;13.67;;;2.90;;
12603;SDS011;6367;52.508;13.284;2023-02-02T00:57:50;13.70;;;3.00;;
12603;SDS011;6367;52.508;13.284;2023-02-02T01:00:17;14.13;;;3.47;;
12603;SDS011;6367;52.508;13.284;2023-02-02T01:02:45;9.80;;;3.47;;
12603;SDS011;6367;52.508;13.284;2023-02-02T01:05:11;15.33;;;2.97;;
12603;SDS011;6367;52.508;13.284;2023-02-02T01:07:38;9.73;;;2.60;;
12603;SDS011;6367;52.508;13.284;2023-02-02T01:10:04;14.57;;;3.77;;
12603;SDS011;6367;52.508;13.284;2023-02-02T01:12:33;14.50;;;3.20;;
12603;SDS011;6367;52.508;13.284;2023-02-02T01:14:59;21.53;;;3.70;;
12603;SDS011;6367;52.508;13.284;2023-02-02T01:17:26;15.33;;;2.60;;
12603;SDS011;6367;52.508;13.284;2023-02-02T01:19:52;6.67;;;2.70;;
12603;SDS011;6367;52.508;13.284;2023-02-02T01:22:18;9.83;;;2.80;;
12603;SDS011;6367;52.508;13.284;2023-02-02T01:24:43;12.60;;;3.07;;
12603;SDS011;6367;52.508;13.284;2023-02-02T01:27:09;15.97;;;3.47;;
12603;SDS011;6367;52.508;13.284;2023-02-02T01:29:35;13.60;;;2.60;;
12603;SDS011;6367;52.508;13.284;2023-02-02T01:32:00;12.37;;;2.93;;
12603;SDS011;6367;52.508;13.284;2023-02-02T01:34:26;10.00;;;2.97;;
12603;SDS011;6367;52.508;13.284;2023-02-02T01:36:52;11.03;;;3.30;;
12603;SDS011;6367;52.508;13.284;2023-02-02T01:39:18;13.37;;;2.70;;
12603;SDS011;6367;52.508;13.284;2023-02-02T01:41:43;9.73;;;2.40;;
12603;SDS011;6367;52.508;13.284;2023-02-02T01:47:12;12.27;;;2.40;;
12603;SDS011;6367;52.508;13.284;2023-02-02T01:49:39;9.57;;;3.20;;
12603;SDS011;6367;52.508;13.284;2023-02-02T01:52:05;9.87;;;2.70;;
12603;SDS011;6367;52.508;13.284;2023-02-02T01:54:35;16.27;;;2.80;;
12603;SDS011;6367;52.508;13.284;2023-02-02T01:57:05;12.07;;;2.87;;
12603;SDS011;6367;52.508;13.284;2023-02-02T01:59:41;15.53;;;3.20;;
12603;SDS011;6367;52.508;13.284;2023-02-02T02:02:09;11.97;;;3.03;;
12603;SDS011;6367;52.508;13.284;2023-02-02T02:04:35;13.67;;;2.73;;
12603;SDS011;6367;52.508;13.284;2023-02-02T02:07:02;11.57;;;3.17;;
12603;SDS011;6367;52.508;13.284;2023-02-02T02:09:29;9.80;;;2.40;;
12603;SDS011;6367;52.508;13.284;2023-02-02T02:11:55;9.10;;;2.63;;
12603;SDS011;6367;52.508;13.284;2023-02-02T02:14:21;12.23;;;3.13;;
12603;SDS011;6367;52.508;13.284;2023-02-02T02:25:55;22.40;;;3.50;;
12603;SDS011;6367;52.508;13.284;2023-02-02T02:37:47;10.17;;;2.73;;
12603;SDS011;6367;52.508;13.284;2023-02-02T02:40:28;12.60;;;3.40;;
12603;SDS011;6367;52.508;13.284;2023-02-02T02:43:05;12.70;;;3.10;;
12603;SDS011;6367;52.508;13.284;2023-02-02T02:45:44;11.70;;;2.60;;
12603;SDS011;6367;52.508;13.284;2023-02-02T02:48:10;14.17;;;3.00;;
12603;SDS011;6367;52.508;13.284;2023-02-02T02:50:36;7.73;;;2.23;;
12603;SDS011;6367;52.508;13.284;2023-02-02T02:53:04;11.30;;;2.73;;
12603;SDS011;6367;52.508;13.284;2023-02-02T02:55:35;10.77;;;2.07;;
12603;SDS011;6367;52.508;13.284;2023-02-02T02:58:25;11.37;;;3.50;;
12603;SDS011;6367;52.508;13.284;2023-02-02T03:01:01;9.07;;;2.57;;
12603;SDS011;6367;52.508;13.284;2023-02-02T03:06:26;10.50;;;2.60;;
12603;SDS011;6367;52.508;13.284;2023-02-02T03:09:02;9.70;;;2.07;;
12603;SDS011;6367;52.508;13.284;2023-02-02T03:11:33;10.37;;;2.27;;
12603;SDS011;6367;52.508;13.284;2023-02-02T03:14:00;11.40;;;2.20;;
12603;SDS011;6367;52.508;13.284;2023-02-02T03:16:26;8.37;;;2.03;;
12603;SDS011;6367;52.508;13.284;2023-02-02T03:18:52;7.77;;;2.50;;
12603;SDS011;6367;52.508;13.284;2023-02-02T03:21:19;9.90;;;2.77;;
12603;SDS011;6367;52.508;13.284;2023-02-02T03:23:45;7.10;;;1.83;;
12603;SDS011;6367;52.508;13.284;2023-02-02T03:26:11;7.10;;;1.87;;
12603;SDS011;6367;52.508;13.284;2023-02-02T03:28:37;8.80;;;3.10;;
12603;SDS011;6367;52.508;13.284;2023-02-02T03:31:03;6.73;;;2.20;;
12603;SDS011;6367;52.508;13.284;2023-02-02T03:33:29;9.30;;;2.03;;
12603;SDS011;6367;52.508;13.284;2023-02-02T03:35:57;6.77;;;2.13;;
12603;SDS011;6367;52.508;13.284;2023-02-02T03:38:22;6.30;;;1.93;;
12603;SDS011;6367;52.508;13.284;2023-02-02T03:40:49;11.50;;;2.10;;
12603;SDS011;6367;52.508;13.284;2023-02-02T03:43:22;7.27;;;2.03;;
12603;SDS011;6367;52.508;13.284;2023-02-02T03:45:59;5.83;;;1.87;;
12603;SDS011;6367;52.508;13.284;2023-02-02T03:48:28;12.73;;;2.50;;
12603;SDS011;6367;52.508;13.284;2023-02-02T03:50:54;7.50;;;1.97;;
12603;SDS011;6367;52.508;13.284;2023-02-02T03:53:19;10.50;;;2.40;;
12603;SDS011;6367;52.508;13.284;2023-02-02T03:55:45;7.13;;;1.90;;
12603;SDS011;6367;52.508;13.284;2023-02-02T03:58:11;5.53;;;1.40;;
12603;SDS011;6367;52.508;13.284;2023-02-02T04:00:36;10.77;;;2.10;;
12603;SDS011;6367;52.508;13.284;2023-02-02T04:03:02;7.70;;;2.03;;
12603;SDS011;6367;52.508;13.284;2023-02-02T04:05:28;6.10;;;1.77;;
12603;SDS011;6367;52.508;13.284;2023-02-02T04:07:53;5.47;;;2.37;;
12603;SDS011;6367;52.508;13.284;2023-02-02T04:10:19;3.97;;;1.53;;
12603;SDS011;6367;52.508;13.284;2023-02-02T04:12:45;6.37;;;1.50;;
12603;SDS011;6367;52.508;13.284;2023-02-02T04:15:11;6.13;;;1.73;;
12603;SDS011;6367;52.508;13.284;2023-02-02T04:17:36;7.63;;;2.07;;
12603;SDS011;6367;52.508;13.284;2023-02-02T04:20:03;9.83;;;1.87;;
12603;SDS011;6367;52.508;13.284;2023-02-02T04:22:29;7.63;;;1.60;;
12603;SDS011;6367;52.508;13.284;2023-02-02T04:24:55;8.13;;;2.20;;
12603;SDS011;6367;52.508;13.284;2023-02-02T04:27:21;5.73;;;1.60;;
12603;SDS011;6367;52.508;13.284;2023-02-02T04:29:46;11.93;;;1.80;;
12603;SDS011;6367;52.508;13.284;2023-02-02T04:32:15;8.77;;;2.10;;
12603;SDS011;6367;52.508;13.284;2023-02-02T04:34:42;9.53;;;1.97;;
12603;SDS011;6367;52.508;13.284;2023-02-02T04:37:08;7.93;;;2.20;;
12603;SDS011;6367;52.508;13.284;2023-02-02T04:39:34;9.10;;;2.53;;
12603;SDS011;6367;52.508;13.284;2023-02-02T04:42:00;7.87;;;2.23;;
12603;SDS011;6367;52.508;13.284;2023-02-02T04:44:25;13.60;;;2.53;;
12603;SDS011;6367;52.508;13.284;2023-02-02T04:46:51;6.20;;;2.40;;
12603;SDS011;6367;52.508;13.284;2023-02-02T04:49:17;6.40;;;1.43;;
12603;SDS011;6367;52.508;13.284;2023-02-02T04:51:42;3.57;;;1.60;;
12603;SDS011;6367;52.508;13.284;2023-02-02T04:54:08;6.60;;;1.90;;
12603;SDS011;6367;52.508;13.284;2023-02-02T04:56:34;8.43;;;1.97;;
12603;SDS011;6367;52.508;13.284;2023-02-02T04:59:00;4.30;;;1.83;;
12603;SDS011;6367;52.508;13.284;2023-02-02T05:01:26;5.90;;;1.63;;
12603;SDS011;6367;52.508;13.284;2023-02-02T05:03:53;5.77;;;1.90;;
12603;SDS011;6367;52.508;13.284;2023-02-02T05:06:19;5.70;;;1.97;;
12603;SDS011;6367;52.508;13.284;2023-02-02T05:08:45;7.40;;;2.67;;
12603;SDS011;6367;52.508;13.284;2023-02-02T05:11:14;9.67;;;2.07;;
12603;SDS011;6367;52.508;13.284;2023-02-02T05:13:48;9.10;;;2.03;;
12603;SDS011;6367;52.508;13.284;2023-02-02T05:16:15;6.07;;;1.90;;
12603;SDS011;6367;52.508;13.284;2023-02-02T05:18:41;10.10;;;2.27;;
12603;SDS011;6367;52.508;13.284;2023-02-02T05:21:07;12.30;;;1.87;;
12603;SDS011;6367;52.508;13.284;2023-02-02T05:23:33;11.40;;;2.07;;
12603;SDS011;6367;52.508;13.284;2023-02-02T05:25:59;10.20;;;2.87;;
12603;SDS011;6367;52.508;13.284;2023-02-02T05:28:25;4.70;;;1.30;;
12603;SDS011;6367;52.508;13.284;2023-02-02T05:30:50;11.40;;;2.00;;
12603;SDS011;6367;52.508;13.284;2023-02-02T05:33:16;9.43;;;2.37;;
12603;SDS011;6367;52.508;13.284;2023-02-02T05:35:44;7.57;;;1.70;;
12603;SDS011;6367;52.508;13.284;2023-02-02T05:38:10;7.40;;;1.93;;
12603;SDS011;6367;52.508;13.284;2023-02-02T05:40:36;5.93;;;1.87;;
12603;SDS011;6367;52.508;13.284;2023-02-02T05:43:01;7.67;;;1.77;;
12603;SDS011;6367;52.508;13.284;2023-02-02T05:45:27;11.83;;;2.33;;
12603;SDS011;6367;52.508;13.284;2023-02-02T05:47:53;14.10;;;2.20;;
12603;SDS011;6367;52.508;13.284;2023-02-02T05:50:20;10.40;;;2.27;;
12603;SDS011;6367;52.508;13.284;2023-02-02T05:52:45;6.23;;;2.00;;
12603;SDS011;6367;52.508;13.284;2023-02-02T05:55:12;12.00;;;2.53;;
12603;SDS011;6367;52.508;13.284;2023-02-02T05:57:38;12.20;;;2.20;;
12603;SDS011;6367;52.508;13.284;2023-02-02T06:00:04;14.50;;;2.70;;
12603;SDS011;6367;52.508;13.284;2023-02-02T06:02:31;8.90;;;2.60;;
12603;SDS011;6367;52.508;13.284;2023-02-02T06:04:57;11.10;;;2.30;;
12603;SDS011;6367;52.508;13.284;2023-02-02T06:07:22;9.13;;;2.50;;
12603;SDS011;6367;52.508;13.284;2023-02-02T06:09:48;7.93;;;2.07;;
12603;SDS011;6367;52.508;13.284;2023-02-02T06:12:14;4.63;;;2.03;;
12603;SDS011;6367;52.508;13.284;2023-02-02T06:14:39;12.13;;;2.23;;
12603;SDS011;6367;52.508;13.284;2023-02-02T06:17:05;10.67;;;1.90;;
12603;SDS011;6367;52.508;13.284;2023-02-02T06:19:30;8.67;;;2.07;;
12603;SDS011;6367;52.508;13.284;2023-02-02T06:21:56;4.57;;;1.70;;
12603;SDS011;6367;52.508;13.284;2023-02-02T06:24:22;4.17;;;1.37;;
12603;SDS011;6367;52.508;13.284;2023-02-02T06:26:48;9.63;;;2.93;;
12603;SDS011;6367;52.508;13.284;2023-02-02T06:29:14;5.87;;;2.27;;
12603;SDS011;6367;52.508;13.284;2023-02-02T06:31:40;13.70;;;2.00;;
12603;SDS011;6367;52.508;13.284;2023-02-02T06:34:06;10.60;;;3.03;;
12603;SDS011;6367;52.508;13.284;2023-02-02T06:36:32;8.43;;;1.90;;
12603;SDS011;6367;52.508;13.284;2023-02-02T06:38:58;5.87;;;1.70;;
12603;SDS011;6367;52.508;13.284;2023-02-02T06:41:24;6.03;;;2.03;;
12603;SDS011;6367;52.508;13.284;2023-02-02T06:43:51;7.40;;;2.00;;
12603;SDS011;6367;52.508;13.284;2023-02-02T06:46:16;7.33;;;1.80;;
12603;SDS011;6367;52.508;13.284;2023-02-02T06:48:42;6.10;;;1.77;;
12603;SDS011;6367;52.508;13.284;2023-02-02T06:51:08;8.73;;;2.07;;
12603;SDS011;6367;52.508;13.284;2023-02-02T06:53:34;7.43;;;2.17;;
12603;SDS011;6367;52.508;13.284;2023-02-02T06:56:01;12.20;;;2.13;;
12603;SDS011;6367;52.508;13.284;2023-02-02T06:58:30;6.83;;;1.90;;
12603;SDS011;6367;52.508;13.284;2023-02-02T07:01:01;14.77;;;3.90;;
12603;SDS011;6367;52.508;13.284;2023-02-02T07:03:28;6.60;;;1.53;;
12603;SDS011;6367;52.508;13.284;2023-02-02T07:05:54;4.17;;;1.63;;
12603;SDS011;6367;52.508;13.284;2023-02-02T07:08:19;6.93;;;2.00;;
12603;SDS011;6367;52.508;13.284;2023-02-02T07:10:45;11.97;;;2.00;;
12603;SDS011;6367;52.508;13.284;2023-02-02T07:13:11;6.53;;;2.10;;
12603;SDS011;6367;52.508;13.284;2023-02-02T07:15:37;5.20;;;1.87;;
12603;SDS011;6367;52.508;13.284;2023-02-02T07:18:04;6.50;;;1.60;;
12603;SDS011;6367;52.508;13.284;2023-02-02T07:20:30;11.00;;;2.47;;
12603;SDS011;6367;52.508;13.284;2023-02-02T07:22:55;9.03;;;2.20;;
12603;SDS011;6367;52.508;13.284;2023-02-02T07:25:21;6.47;;;1.90;;
12603;SDS011;6367;52.508;13.284;2023-02-02T07:27:51;6.63;;;1.70;;
12603;SDS011;6367;52.508;13.284;2023-02-02T07:30:20;7.67;;;3.03;;
12603;SDS011;6367;52.508;13.284;2023-02-02T07:32:49;7.00;;;2.10;;
12603;SDS011;6367;52.508;13.284;2023-02-02T07:35:15;5.13;;;1.83;;
12603;SDS011;6367;52.508;13.284;2023-02-02T07:37:41;7.90;;;1.90;;
12603;SDS011;6367;52.508;13.284;2023-02-02T07:40:08;9.10;;;2.47;;
12603;SDS011;6367;52.508;13.284;2023-02-02T07:42:35;10.80;;;1.60;;
12603;SDS011;6367;52.508;13.284;2023-02-02T07:45:01;7.37;;;2.43;;
12603;SDS011;6367;52.508;13.284;2023-02-02T07:47:26;6.07;;;1.80;;
12603;SDS011;6367;52.508;13.284;2023-02-02T07:49:52;8.80;;;2.60;;
12603;SDS011;6367;52.508;13.284;2023-02-02T07:52:17;9.77;;;2.97;;
12603;SDS011;6367;52.508;13.284;2023-02-02T07:54:43;8.20;;;2.50;;
12603;SDS011;6367;52.508;13.284;2023-02-02T07:57:09;11.80;;;2.53;;
12603;SDS011;6367;52.508;13.284;2023-02-02T07:59:37;9.97;;;2.10;;
12603;SDS011;6367;52.508;13.284;2023-02-02T08:02:02;7.00;;;2.33;;
12603;SDS011;6367;52.508;13.284;2023-02-02T08:04:28;7.77;;;2.53;;
12603;SDS011;6367;52.508;13.284;2023-02-02T08:06:54;12.17;;;2.60;;
12603;SDS011;6367;52.508;13.284;2023-02-02T08:09:19;11.90;;;1.97;;
12603;SDS011;6367;52.508;13.284;2023-02-02T08:11:45;12.27;;;2.50;;
12603;SDS011;6367;52.508;13.284;2023-02-02T08:14:11;10.20;;;2.53;;
12603;SDS011;6367;52.508;13.284;2023-02-02T08:16:38;8.33;;;2.30;;
12603;SDS011;6367;52.508;13.284;2023-02-02T08:19:04;7.13;;;2.37;;
12603;SDS011;6367;52.508;13.284;2023-02-02T08:21:33;7.57;;;1.80;;
12603;SDS011;6367;52.508;13.284;2023-02-02T08:23:59;7.63;;;2.27;;
12603;SDS011;6367;52.508;13.284;2023-02-02T08:26:26;4.97;;;1.77;;
12603;SDS011;6367;52.508;13.284;2023-02-02T08:28:54;7.87;;;2.23;;
12603;SDS011;6367;52.508;13.284;2023-02-02T08:31:22;13.83;;;2.43;;
12603;SDS011;6367;52.508;13.284;2023-02-02T08:33:53;8.27;;;2.37;;
12603;SDS011;6367;52.508;13.284;2023-02-02T08:36:20;6.87;;;1.80;;
12603;SDS011;6367;52.508;13.284;2023-02-02T08:38:47;6.17;;;2.20;;
12603;SDS011;6367;52.508;13.284;2023-02-02T08:41:14;6.67;;;2.50;;
12603;SDS011;6367;52.508;13.284;2023-02-02T08:43:42;7.57;;;2.03;;
12603;SDS011;6367;52.508;13.284;2023-02-02T08:46:08;8.17;;;2.13;;
12603;SDS011;6367;52.508;13.284;2023-02-02T08:48:35;7.50;;;2.70;;
12603;SDS011;6367;52.508;13.284;2023-02-02T08:51:02;9.33;;;1.90;;
12603;SDS011;6367;52.508;13.284;2023-02-02T08:53:29;6.30;;;1.63;;
12603;SDS011;6367;52.508;13.284;2023-02-02T08:56:05;8.20;;;1.53;;
12603;SDS011;6367;52.508;13.284;2023-02-02T08:58:38;7.00;;;2.00;;
12603;SDS011;6367;52.508;13.284;2023-02-02T09:01:05;11.87;;;3.13;;
12603;SDS011;6367;52.508;13.284;2023-02-02T09:03:32;9.67;;;2.50;;
12603;SDS011;6367;52.508;13.284;2023-02-02T09:06:02;6.67;;;1.90;;
12603;SDS011;6367;52.508;13.284;2023-02-02T09:08:29;6.73;;;1.90;;
12603;SDS011;6367;52.508;13.284;2023-02-02T09:11:01;4.77;;;2.60;;
12603;SDS011;6367;52.508;13.284;2023-02-02T09:13:28;6.00;;;2.13;;
12603;SDS011;6367;52.508;13.284;2023-02-02T09:15:53;7.37;;;2.10;;
12603;SDS011;6367;52.508;13.284;2023-02-02T09:18:23;3.27;;;1.50;;
12603;SDS011;6367;52.508;13.284;2023-02-02T09:20:49;7.27;;;2.37;;
12603;SDS011;6367;52.508;13.284;2023-02-02T09:23:14;7.90;;;2.10;;
12603;SDS011;6367;52.508;13.284;2023-02-02T09:25:40;8.47;;;1.93;;
12603;SDS011;6367;52.508;13.284;2023-02-02T09:28:06;7.40;;;1.70;;
12603;SDS011;6367;52.508;13.284;2023-02-02T09:30:31;6.50;;;1.77;;
12603;SDS011;6367;52.508;13.284;2023-02-02T09:32:57;9.60;;;2.33;;
12603;SDS011;6367;52.508;13.284;2023-02-02T09:35:22;4.20;;;1.33;;
12603;SDS011;6367;52.508;13.284;2023-02-02T09:37:48;5.60;;;1.47;;
12603;SDS011;6367;52.508;13.284;2023-02-02T09:40:14;7.13;;;1.90;;
12603;SDS011;6367;52.508;13.284;2023-02-02T09:42:52;7.70;;;2.23;;
12603;SDS011;6367;52.508;13.284;2023-02-02T09:45:39;9.27;;;2.10;;
12603;SDS011;6367;52.508;13.284;2023-02-02T09:48:26;9.43;;;1.87;;
12603;SDS011;6367;52.508;13.284;2023-02-02T09:51:12;9.50;;;1.60;;
12603;SDS011;6367;52.508;13.284;2023-02-02T09:53:51;9.13;;;1.93;;
12603;SDS011;6367;52.508;13.284;2023-02-02T09:56:28;5.33;;;1.93;;
12603;SDS011;6367;52.508;13.284;2023-02-02T09:59:01;5.17;;;1.73;;
12603;SDS011;6367;52.508;13.284;2023-02-02T10:01:30;4.97;;;1.90;;
12603;SDS011;6367;52.508;13.284;2023-02-02T10:04:06;9.50;;;1.87;;
12603;SDS011;6367;52.508;13.284;2023-02-02T10:06:43;5.20;;;1.60;;
12603;SDS011;6367;52.508;13.284;2023-02-02T10:09:16;12.37;;;3.03;;
12603;SDS011;6367;52.508;13.284;2023-02-02T10:11:51;6.90;;;2.20;;
12603;SDS011;6367;52.508;13.284;2023-02-02T10:19:51;6.77;;;1.50;;
12603;SDS011;6367;52.508;13.284;2023-02-02T10:22:26;7.27;;;1.83;;
12603;SDS011;6367;52.508;13.284;2023-02-02T10:24:54;7.23;;;1.70;;
12603;SDS011;6367;52.508;13.284;2023-02-02T10:27:45;7.43;;;1.53;;
12603;SDS011;6367;52.508;13.284;2023-02-02T10:30:18;11.07;;;2.40;;
12603;SDS011;6367;52.508;13.284;2023-02-02T10:32:59;6.80;;;2.00;;
12603;SDS011;6367;52.508;13.284;2023-02-02T10:35:32;5.60;;;2.03;;
12603;SDS011;6367;52.508;13.284;2023-02-02T10:46:26;4.33;;;1.80;;
12603;SDS011;6367;52.508;13.284;2023-02-02T10:49:10;6.20;;;2.07;;
12603;SDS011;6367;52.508;13.284;2023-02-02T10:51:53;9.00;;;1.60;;
12603;SDS011;6367;52.508;13.284;2023-02-02T10:54:44;6.77;;;2.00;;
12603;SDS011;6367;52.508;13.284;2023-02-02T10:57:12;7.23;;;1.90;;
12603;SDS011;6367;52.508;13.284;2023-02-02T10:59:47;7.77;;;2.27;;
12603;SDS011;6367;52.508;13.284;2023-02-02T11:02:37;6.30;;;1.33;;
12603;SDS011;6367;52.508;13.284;2023-02-02T11:05:03;3.93;;;1.80;;
12603;SDS011;6367;52.508;13.284;2023-02-02T11:07:47;6.20;;;1.90;;
12603;SDS011;6367;52.508;13.284;2023-02-02T11:10:15;6.57;;;1.53;;
12603;SDS011;6367;52.508;13.284;2023-02-02T11:12:41;3.43;;;1.50;;
12603;SDS011;6367;52.508;13.284;2023-02-02T11:17:49;5.73;;;1.70;;
12603;SDS011;6367;52.508;13.284;2023-02-02T11:20:23;5.70;;;1.33;;
12603;SDS011;6367;52.508;13.284;2023-02-02T11:22:59;4.67;;;1.40;;
12603;SDS011;6367;52.508;13.284;2023-02-02T11:25:33;4.80;;;1.60;;
12603;SDS011;6367;52.508;13.284;2023-02-02T11:28:20;5.33;;;1.40;;
12603;SDS011;6367;52.508;13.284;2023-02-02T11:30:49;5.37;;;1.37;;
12603;SDS011;6367;52.508;13.284;2023-02-02T11:36:01;2.30;;;1.27;;
12603;SDS011;6367;52.508;13.284;2023-02-02T11:38:29;5.40;;;1.93;;
12603;SDS011;6367;52.508;13.284;2023-02-02T11:41:03;5.60;;;1.50;;
12603;SDS011;6367;52.508;13.284;2023-02-02T11:43:38;7.67;;;1.70;;
12603;SDS011;6367;52.508;13.284;2023-02-02T11:46:12;7.87;;;1.63;;
12603;SDS011;6367;52.508;13.284;2023-02-02T11:48:58;4.23;;;1.30;;
12603;SDS011;6367;52.508;13.284;2023-02-02T11:51:27;9.17;;;2.03;;
12603;SDS011;6367;52.508;13.284;2023-02-02T11:54:02;6.07;;;1.60;;
12603;SDS011;6367;52.508;13.284;2023-02-02T11:56:39;8.83;;;1.57;;
12603;SDS011;6367;52.508;13.284;2023-02-02T11:59:08;4.43;;;1.30;;
12603;SDS011;6367;52.508;13.284;2023-02-02T12:04:36;5.47;;;1.30;;
12603;SDS011;6367;52.508;13.284;2023-02-02T12:07:16;5.57;;;1.50;;
12603;SDS011;6367;52.508;13.284;2023-02-02T12:09:44;3.63;;;2.00;;
12603;SDS011;6367;52.508;13.284;2023-02-02T12:17:45;5.57;;;1.20;;
12603;SDS011;6367;52.508;13.284;2023-02-02T12:20:25;3.70;;;1.73;;
12603;SDS011;6367;52.508;13.284;2023-02-02T12:23:12;2.10;;;1.60;;
12603;SDS011;6367;52.508;13.284;2023-02-02T12:31:43;3.97;;;1.20;;
12603;SDS011;6367;52.508;13.284;2023-02-02T12:51:35;3.77;;;2.13;;
12603;SDS011;6367;52.508;13.284;2023-02-02T12:54:39;3.43;;;1.60;;
12603;SDS011;6367;52.508;13.284;2023-02-02T13:02:43;6.00;;;1.90;;
12603;SDS011;6367;52.508;13.284;2023-02-02T13:06:00;4.23;;;1.53;;
12603;SDS011;6367;52.508;13.284;2023-02-02T13:08:59;7.13;;;1.40;;
12603;SDS011;6367;52.508;13.284;2023-02-02T13:11:40;3.30;;;1.50;;
12603;SDS011;6367;52.508;13.284;2023-02-02T13:14:30;4.80;;;1.43;;
12603;SDS011;6367;52.508;13.284;2023-02-02T13:20:01;3.90;;;1.47;;
12603;SDS011;6367;52.508;13.284;2023-02-02T13:22:35;3.37;;;1.33;;
12603;SDS011;6367;52.508;13.284;2023-02-02T13:25:06;9.17;;;1.73;;
12603;SDS011;6367;52.508;13.284;2023-02-02T13:27:43;4.33;;;1.33;;
12603;SDS011;6367;52.508;13.284;2023-02-02T13:33:00;4.80;;;1.30;;
12603;SDS011;6367;52.508;13.284;2023-02-02T13:35:52;3.57;;;1.30;;
12603;SDS011;6367;52.508;13.284;2023-02-02T13:38:24;3.37;;;1.20;;
12603;SDS011;6367;52.508;13.284;2023-02-02T13:40:53;3.43;;;1.20;;
12603;SDS011;6367;52.508;13.284;2023-02-02T13:43:35;6.10;;;1.30;;
12603;SDS011;6367;52.508;13.284;2023-02-02T13:51:40;3.90;;;1.30;;
12603;SDS011;6367;52.508;13.284;2023-02-02T14:02:43;4.93;;;1.63;;
12603;SDS011;6367;52.508;13.284;2023-02-02T14:13:06;6.50;;;1.70;;
12603;SDS011;6367;52.508;13.284;2023-02-02T14:16:03;4.80;;;1.60;;
12603;SDS011;6367;52.508;13.284;2023-02-02T14:21:56;5.63;;;1.57;;
12603;SDS011;6367;52.508;13.284;2023-02-02T14:24:50;3.27;;;1.33;;
12603;SDS011;6367;52.508;13.284;2023-02-02T14:27:38;6.17;;;1.37;;
12603;SDS011;6367;52.508;13.284;2023-02-02T14:34:55;4.60;;;1.53;;
12603;SDS011;6367;52.508;13.284;2023-02-02T14:40:52;8.97;;;1.60;;
12603;SDS011;6367;52.508;13.284;2023-02-02T14:43:29;3.80;;;1.30;;
12603;SDS011;6367;52.508;13.284;2023-02-02T14:48:41;3.50;;;1.33;;
12603;SDS011;6367;52.508;13.284;2023-02-02T14:51:21;10.10;;;1.70;;
12603;SDS011;6367;52.508;13.284;2023-02-02T14:53:52;1.60;;;1.30;;
12603;SDS011;6367;52.508;13.284;2023-02-02T14:56:39;4.13;;;1.73;;
12603;SDS011;6367;52.508;13.284;2023-02-02T14:59:18;6.80;;;2.37;;
12603;SDS011;6367;52.508;13.284;2023-02-02T15:02:00;6.00;;;1.60;;
12603;SDS011;6367;52.508;13.284;2023-02-02T15:04:44;2.50;;;1.30;;
12603;SDS011;6367;52.508;13.284;2023-02-02T15:07:59;3.70;;;1.57;;
12603;SDS011;6367;52.508;13.284;2023-02-02T15:10:14;5.80;;;1.63;;
12603;SDS011;6367;52.508;13.284;2023-02-02T15:13:14;2.53;;;1.10;;
12603;SDS011;6367;52.508;13.284;2023-02-02T15:15:42;3.13;;;0.90;;
12603;SDS011;6367;52.508;13.284;2023-02-02T15:18:14;5.30;;;1.37;;
12603;SDS011;6367;52.508;13.284;2023-02-02T15:20:45;2.50;;;0.97;;
12603;SDS011;6367;52.508;13.284;2023-02-02T15:23:21;4.23;;;1.13;;
12603;SDS011;6367;52.508;13.284;2023-02-02T15:26:02;4.17;;;1.27;;
12603;SDS011;6367;52.508;13.284;2023-02-02T15:28:53;2.50;;;1.10;;
12603;SDS011;6367;52.508;13.284;2023-02-02T15:31:34;2.13;;;1.13;;
12603;SDS011;6367;52.508;13.284;2023-02-02T15:34:25;3.10;;;1.30;;
12603;SDS011;6367;52.508;13.284;2023-02-02T15:37:01;3.40;;;1.00;;
12603;SDS011;6367;52.508;13.284;2023-02-02T15:39:30;3.53;;;1.60;;
12603;SDS011;6367;52.508;13.284;2023-02-02T15:42:01;3.50;;;1.10;;
12603;SDS011;6367;52.508;13.284;2023-02-02T15:44:49;4.57;;;1.03;;
12603;SDS011;6367;52.508;13.284;2023-02-02T15:47:16;2.50;;;1.00;;
12603;SDS011;6367;52.508;13.284;2023-02-02T15:49:44;3.03;;;1.10;;
12603;SDS011;6367;52.508;13.284;2023-02-02T15:52:12;1.37;;;1.27;;
12603;SDS011;6367;52.508;13.284;2023-02-02T15:54:47;8.93;;;1.70;;
12603;SDS011;6367;52.508;13.284;2023-02-02T15:59:50;2.93;;;1.50;;
12603;SDS011;6367;52.508;13.284;2023-02-02T16:02:27;3.43;;;1.17;;
12603;SDS011;6367;52.508;13.284;2023-02-02T16:04:54;2.50;;;1.27;;
12603;SDS011;6367;52.508;13.284;2023-02-02T16:07:22;1.93;;;1.20;;
12603;SDS011;6367;52.508;13.284;2023-02-02T16:09:53;3.50;;;1.30;;
12603;SDS011;6367;52.508;13.284;2023-02-02T16:12:19;1.83;;;1.17;;
12603;SDS011;6367;52.508;13.284;2023-02-02T16:14:48;2.73;;;1.33;;
12603;SDS011;6367;52.508;13.284;2023-02-02T16:17:22;2.70;;;1.40;;
12603;SDS011;6367;52.508;13.284;2023-02-02T16:20:00;3.77;;;1.47;;
12603;SDS011;6367;52.508;13.284;2023-02-02T16:22:28;4.57;;;2.07;;
12603;SDS011;6367;52.508;13.284;2023-02-02T16:24:57;1.77;;;1.23;;
12603;SDS011;6367;52.508;13.284;2023-02-02T16:27:25;4.00;;;1.20;;
12603;SDS011;6367;52.508;13.284;2023-02-02T16:29:54;3.17;;;1.63;;
12603;SDS011;6367;52.508;13.284;2023-02-02T16:32:28;4.07;;;1.70;;
12603;SDS011;6367;52.508;13.284;2023-02-02T16:34:55;1.57;;;1.27;;
12603;SDS011;6367;52.508;13.284;2023-02-02T16:39:52;2.70;;;1.40;;
12603;SDS011;6367;52.508;13.284;2023-02-02T16:44:48;4.57;;;1.83;;
12603;SDS011;6367;52.508;13.284;2023-02-02T16:49:53;3.00;;;1.53;;
12603;SDS011;6367;52.508;13.284;2023-02-02T16:52:54;1.83;;;1.20;;
12603;SDS011;6367;52.508;13.284;2023-02-02T16:55:22;3.23;;;1.20;;
12603;SDS011;6367;52.508;13.284;2023-02-02T16:57:49;2.60;;;1.70;;
12603;SDS011;6367;52.508;13.284;2023-02-02T17:00:20;4.87;;;1.90;;
12603;SDS011;6367;52.508;13.284;2023-02-02T17:02:49;3.57;;;1.63;;
12603;SDS011;6367;52.508;13.284;2023-02-02T17:05:18;3.00;;;1.30;;
12603;SDS011;6367;52.508;13.284;2023-02-02T17:07:53;3.70;;;1.70;;
12603;SDS011;6367;52.508;13.284;2023-02-02T17:10:24;3.73;;;1.70;;
12603;SDS011;6367;52.508;13.284;2023-02-02T17:12:57;4.30;;;1.73;;
12603;SDS011;6367;52.508;13.284;2023-02-02T17:15:28;3.53;;;1.83;;
12603;SDS011;6367;52.508;13.284;2023-02-02T17:17:56;3.93;;;2.43;;
12603;SDS011;6367;52.508;13.284;2023-02-02T17:20:22;3.97;;;2.03;;